createdAt,value
2019-02-14T00:03:27.019Z,64.08
2019-02-14T00:09:33.517Z,64.11
2019-02-14T00:15:39.413Z,64.38
2019-02-14T00:21:45.191Z,65.06
2019-02-14T00:27:51.226Z,65.31
2019-02-14T00:33:57.312Z,65.16
2019-02-14T00:40:03.077Z,64.90
2019-02-14T00:46:09.446Z,64.77
2019-02-14T00:52:15.305Z,64.64
2019-02-14T00:58:21.161Z,64.92
2019-02-14T01:04:27.596Z,65.62
2019-02-14T01:10:33.801Z,65.66
2019-02-14T01:16:39.649Z,65.54
2019-02-14T01:22:45.486Z,65.63
2019-02-14T01:28:51.505Z,65.62
2019-02-14T01:34:57.794Z,65.59
2019-02-14T01:41:10.585Z,65.71
2019-02-14T01:47:17.746Z,65.60
2019-02-14T01:53:23.717Z,65.67
2019-02-14T01:59:30.016Z,65.63
2019-02-14T02:05:35.907Z,65.60
2019-02-14T02:11:41.980Z,65.80
2019-02-14T02:17:48.122Z,65.98
2019-02-14T02:23:54.229Z,66.10
2019-02-14T02:30:00.400Z,66.17
2019-02-14T02:36:06.259Z,66.20
2019-02-14T02:42:12.429Z,66.19
2019-02-14T02:48:18.509Z,66.22
2019-02-14T02:54:24.288Z,66.37
2019-02-14T03:00:30.200Z,66.22
2019-02-14T03:06:36.098Z,66.13
2019-02-14T03:12:41.879Z,66.30
2019-02-14T03:18:47.669Z,66.32
2019-02-14T03:24:53.384Z,66.26
2019-02-14T03:30:59.360Z,66.13
2019-02-14T03:37:05.158Z,66.27
2019-02-14T03:43:11.167Z,66.43
2019-02-14T03:49:17.309Z,66.52
2019-02-14T03:55:23.287Z,66.42
2019-02-14T04:01:29.888Z,66.48
2019-02-14T04:07:35.867Z,66.21
2019-02-14T04:13:42.354Z,66.30
2019-02-14T04:19:48.447Z,66.34
2019-02-14T04:25:54.288Z,66.49
2019-02-14T04:32:00.209Z,66.43
2019-02-14T04:38:06.159Z,66.46
2019-02-14T04:44:11.934Z,66.51
2019-02-14T04:50:17.808Z,66.57
2019-02-14T04:56:23.823Z,66.47
2019-02-14T05:02:30.118Z,66.39
2019-02-14T05:08:36.179Z,66.23
2019-02-14T05:14:42.024Z,66.14
2019-02-14T05:20:48.083Z,66.31
2019-02-14T05:26:54.167Z,66.17
2019-02-14T05:33:00.021Z,66.27
2019-02-14T05:39:06.980Z,66.42
2019-02-14T05:45:13.220Z,66.32
2019-02-14T05:51:19.147Z,66.60
2019-02-14T05:57:27.302Z,66.79
2019-02-14T06:03:33.290Z,66.83
2019-02-14T06:09:39.250Z,66.84
2019-02-14T06:15:45.051Z,66.80
2019-02-14T06:21:51.088Z,66.93
2019-02-14T06:27:57.053Z,67.33
2019-02-14T06:34:03.381Z,67.39
2019-02-14T06:40:11.163Z,67.37
2019-02-14T06:46:17.111Z,67.69
2019-02-14T06:52:46.676Z,67.62
2019-02-14T06:58:52.584Z,67.61
2019-02-14T07:04:58.433Z,67.45
2019-02-14T07:11:04.253Z,67.50
2019-02-14T07:17:10.354Z,67.54
2019-02-14T07:23:16.255Z,67.62
2019-02-14T07:29:22.012Z,67.47
2019-02-14T07:35:27.717Z,67.29
2019-02-14T07:41:33.508Z,67.09
2019-02-14T07:47:39.261Z,66.99
2019-02-14T07:53:45.318Z,66.76
2019-02-14T07:59:51.070Z,66.47
2019-02-14T08:05:57.214Z,66.45
2019-02-14T08:12:03.089Z,65.74
2019-02-14T08:18:09.117Z,66.17
2019-02-14T08:24:14.935Z,66.73
2019-02-14T08:30:20.638Z,66.68
2019-02-14T08:36:26.778Z,66.56
2019-02-14T08:42:32.694Z,64.65
2019-02-14T08:48:38.777Z,63.90
2019-02-14T08:54:44.790Z,63.73
2019-02-14T09:00:50.530Z,64.02
2019-02-14T09:06:56.571Z,63.02
2019-02-14T09:13:02.593Z,62.97
2019-02-14T09:19:08.294Z,62.54
2019-02-14T09:25:14.321Z,63.22
2019-02-14T09:31:20.353Z,62.68
2019-02-14T09:37:26.368Z,59.43
2019-02-14T09:43:32.182Z,55.84
2019-02-14T09:49:37.907Z,55.92
2019-02-14T09:55:43.763Z,54.51
2019-02-14T10:01:49.668Z,50.14
2019-02-14T10:07:55.542Z,48.93
2019-02-14T10:14:01.388Z,48.91
2019-02-14T10:20:09.576Z,48.71
2019-02-14T10:26:15.574Z,47.89
2019-02-14T10:32:21.472Z,47.22
2019-02-14T10:38:27.198Z,45.47
2019-02-14T10:44:33.143Z,44.88
2019-02-14T10:50:39.023Z,43.46
2019-02-14T10:56:44.767Z,42.67
2019-02-14T11:02:52.282Z,41.53
2019-02-14T11:08:58.327Z,41.13
2019-02-14T11:15:04.197Z,41.39
2019-02-14T11:21:10.443Z,40.80
2019-02-14T11:27:16.615Z,39.46
2019-02-14T11:33:22.519Z,38.92
2019-02-14T11:39:28.290Z,38.54
2019-02-14T11:45:34.387Z,37.31
2019-02-14T11:51:40.323Z,37.05
2019-02-14T11:57:46.081Z,36.00
2019-02-14T12:03:51.888Z,36.28
2019-02-14T12:09:57.811Z,35.37
2019-02-14T12:16:03.946Z,35.70
2019-02-14T12:22:10.133Z,35.32
2019-02-14T12:28:16.039Z,35.31
2019-02-14T12:34:21.750Z,35.11
2019-02-14T12:40:27.887Z,35.60
2019-02-14T12:46:33.681Z,35.54
2019-02-14T12:52:39.524Z,35.96
2019-02-14T12:58:45.824Z,36.39
2019-02-14T13:04:51.877Z,36.20
2019-02-14T13:10:58.535Z,35.52
2019-02-14T13:17:04.339Z,33.61
2019-02-14T13:23:10.400Z,33.12
2019-02-14T13:29:16.343Z,34.50
2019-02-14T13:35:22.046Z,34.19
2019-02-14T13:41:31.084Z,34.31
2019-02-14T13:47:35.948Z,33.85
2019-02-14T13:53:41.710Z,32.83
2019-02-14T13:59:47.756Z,31.93
2019-02-14T14:05:56.974Z,31.65
2019-02-14T14:12:02.825Z,30.90
2019-02-14T14:18:08.610Z,30.60
2019-02-14T14:24:14.471Z,30.27
2019-02-14T14:30:20.462Z,30.12
2019-02-14T14:36:26.406Z,30.28
2019-02-14T14:43:00.227Z,30.68
2019-02-14T14:49:06.052Z,29.52
2019-02-14T14:55:11.955Z,30.67
2019-02-14T15:01:17.817Z,30.89
2019-02-14T15:07:23.913Z,31.03
2019-02-14T15:13:29.755Z,30.89
2019-02-14T15:19:35.750Z,31.67
2019-02-14T15:25:41.521Z,31.93
2019-02-14T15:31:47.221Z,30.93
2019-02-14T15:37:53.170Z,30.53
2019-02-14T15:43:59.013Z,30.61
2019-02-14T15:50:06.873Z,30.83
2019-02-14T15:56:13.230Z,31.08
2019-02-14T16:02:19.237Z,30.77
2019-02-14T16:08:25.680Z,30.90
2019-02-14T16:14:31.582Z,31.48
2019-02-14T16:20:39.792Z,31.81
2019-02-14T16:26:45.396Z,32.54
2019-02-14T16:32:51.890Z,33.17
2019-02-14T16:38:58.730Z,33.45
2019-02-14T16:45:05.911Z,34.08
2019-02-14T16:51:11.855Z,35.38
2019-02-14T16:57:18.130Z,36.52
2019-02-14T17:03:24.106Z,36.48
2019-02-14T17:09:30.264Z,38.20
2019-02-14T17:15:36.421Z,38.85
2019-02-14T17:21:43.449Z,39.58
2019-02-14T17:27:51.079Z,40.69
2019-02-14T17:33:57.128Z,41.67
2019-02-14T17:40:03.137Z,42.30
2019-02-14T17:46:09.219Z,43.73
2019-02-14T17:52:15.614Z,44.35
2019-02-14T17:58:21.640Z,44.74
2019-02-14T18:04:27.438Z,45.96
2019-02-14T18:10:33.587Z,46.40
2019-02-14T18:16:39.433Z,46.98
2019-02-14T18:22:45.128Z,47.63
2019-02-14T18:28:50.914Z,48.35
2019-02-14T18:34:58.738Z,50.57
2019-02-14T18:41:07.007Z,50.60
2019-02-14T18:47:15.989Z,51.22
2019-02-14T18:53:21.982Z,51.26
2019-02-14T18:59:27.975Z,51.59
2019-02-14T19:05:33.815Z,52.40
2019-02-14T19:11:39.779Z,52.85
2019-02-14T19:17:45.874Z,53.11
2019-02-14T19:23:51.777Z,53.46
2019-02-14T19:29:57.816Z,53.44
2019-02-14T19:36:03.904Z,53.46
2019-02-14T19:42:13.273Z,53.78
2019-02-14T19:48:19.072Z,54.12
2019-02-14T19:54:24.879Z,54.56
2019-02-14T20:00:30.823Z,54.93
2019-02-14T20:06:36.592Z,55.42
2019-02-14T20:12:42.856Z,55.69
2019-02-14T20:18:48.904Z,56.64
2019-02-14T20:24:54.836Z,57.39
2019-02-14T20:31:01.397Z,57.58
2019-02-14T20:37:07.277Z,58.16
2019-02-14T20:43:13.198Z,58.46
2019-02-14T20:49:19.072Z,58.71
2019-02-14T20:55:24.913Z,58.70
2019-02-14T21:01:31.001Z,58.95
2019-02-14T21:07:37.361Z,59.27
2019-02-14T21:13:43.583Z,59.35
2019-02-14T21:19:49.306Z,59.37
2019-02-14T21:25:55.537Z,59.35
2019-02-14T21:32:01.448Z,59.18
2019-02-14T21:38:07.825Z,59.25
2019-02-14T21:44:13.847Z,59.08
2019-02-14T21:50:19.841Z,59.31
2019-02-14T21:56:25.703Z,59.26
2019-02-14T22:02:31.520Z,59.23
2019-02-14T22:08:37.261Z,59.22
2019-02-14T22:14:43.697Z,59.35
2019-02-14T22:20:49.494Z,59.34
2019-02-14T22:26:55.261Z,59.28
2019-02-14T22:33:01.035Z,59.34
2019-02-14T22:39:07.822Z,58.99
2019-02-14T22:45:14.139Z,58.83
2019-02-14T22:51:20.828Z,58.33
2019-02-14T22:57:26.781Z,57.63
2019-02-14T23:03:32.803Z,57.18
2019-02-14T23:09:39.465Z,56.34
2019-02-14T23:15:46.551Z,56.03
2019-02-14T23:21:53.262Z,55.75
2019-02-14T23:27:59.658Z,55.75
2019-02-14T23:34:05.562Z,55.37
2019-02-14T23:40:11.475Z,54.36
2019-02-14T23:46:17.436Z,54.38
2019-02-14T23:52:23.398Z,53.93
2019-02-14T23:58:29.108Z,53.59
